sensor_id;sensor_type;location;lat;lon;timestamp;P1;durP1;ratioP1;P2;durP2;ratioP2
21761;SDS011;11203;50.870;20.682;2022-07-03T00:01:36;8.75;;;7.05;;
21761;SDS011;11203;50.870;20.682;2022-07-03T00:04:02;12.85;;;8.68;;
21761;SDS011;11203;50.870;20.682;2022-07-03T00:06:28;10.38;;;7.95;;
21761;SDS011;11203;50.870;20.682;2022-07-03T00:08:56;7.65;;;6.78;;
21761;SDS011;11203;50.870;20.682;2022-07-03T00:11:24;8.13;;;7.32;;
21761;SDS011;11203;50.870;20.682;2022-07-03T00:13:51;10.50;;;6.97;;
21761;SDS011;11203;50.870;20.682;2022-07-03T00:16:17;11.02;;;8.60;;
21761;SDS011;11203;50.870;20.682;2022-07-03T00:18:43;9.95;;;7.07;;
21761;SDS011;11203;50.870;20.682;2022-07-03T00:21:09;8.57;;;7.38;;
21761;SDS011;11203;50.870;20.682;2022-07-03T00:23:40;7.25;;;6.55;;
21761;SDS011;11203;50.870;20.682;2022-07-03T00:26:20;11.52;;;8.35;;
21761;SDS011;11203;50.870;20.682;2022-07-03T00:28:46;9.95;;;8.23;;
21761;SDS011;11203;50.870;20.682;2022-07-03T00:31:13;8.10;;;7.30;;
21761;SDS011;11203;50.870;20.682;2022-07-03T00:33:39;6.95;;;6.35;;
21761;SDS011;11203;50.870;20.682;2022-07-03T00:36:07;7.90;;;7.03;;
21761;SDS011;11203;50.870;20.682;2022-07-03T00:38:33;9.93;;;7.97;;
21761;SDS011;11203;50.870;20.682;2022-07-03T00:41:03;9.57;;;7.40;;
21761;SDS011;11203;50.870;20.682;2022-07-03T00:43:29;8.20;;;6.35;;
21761;SDS011;11203;50.870;20.682;2022-07-03T00:45:55;7.28;;;6.63;;
21761;SDS011;11203;50.870;20.682;2022-07-03T00:48:36;7.47;;;6.78;;
21761;SDS011;11203;50.870;20.682;2022-07-03T00:51:04;7.18;;;6.20;;
21761;SDS011;11203;50.870;20.682;2022-07-03T00:53:32;9.57;;;6.80;;
21761;SDS011;11203;50.870;20.682;2022-07-03T00:56:03;6.95;;;6.22;;
21761;SDS011;11203;50.870;20.682;2022-07-03T00:58:30;8.00;;;5.90;;
21761;SDS011;11203;50.870;20.682;2022-07-03T01:00:59;7.15;;;6.55;;
21761;SDS011;11203;50.870;20.682;2022-07-03T01:03:26;7.28;;;6.55;;
21761;SDS011;11203;50.870;20.682;2022-07-03T01:05:54;7.47;;;6.70;;
21761;SDS011;11203;50.870;20.682;2022-07-03T01:08:43;8.48;;;7.60;;
21761;SDS011;11203;50.870;20.682;2022-07-03T01:11:30;11.45;;;7.47;;
21761;SDS011;11203;50.870;20.682;2022-07-03T01:16:57;8.38;;;7.07;;
21761;SDS011;11203;50.870;20.682;2022-07-03T01:27:58;9.70;;;8.40;;
21761;SDS011;11203;50.870;20.682;2022-07-03T01:30:48;9.38;;;8.25;;
21761;SDS011;11203;50.870;20.682;2022-07-03T01:33:18;10.15;;;7.70;;
21761;SDS011;11203;50.870;20.682;2022-07-03T01:38:30;9.40;;;8.18;;
21761;SDS011;11203;50.870;20.682;2022-07-03T01:40:59;10.00;;;7.75;;
21761;SDS011;11203;50.870;20.682;2022-07-03T01:43:29;9.57;;;8.57;;
21761;SDS011;11203;50.870;20.682;2022-07-03T01:45:58;9.45;;;7.80;;
21761;SDS011;11203;50.870;20.682;2022-07-03T01:48:28;10.52;;;8.25;;
21761;SDS011;11203;50.870;20.682;2022-07-03T01:50:56;9.18;;;8.07;;
21761;SDS011;11203;50.870;20.682;2022-07-03T01:53:23;15.10;;;8.40;;
21761;SDS011;11203;50.870;20.682;2022-07-03T01:55:54;7.75;;;7.05;;
21761;SDS011;11203;50.870;20.682;2022-07-03T01:58:22;7.95;;;7.25;;
21761;SDS011;11203;50.870;20.682;2022-07-03T02:01:02;9.65;;;7.57;;
21761;SDS011;11203;50.870;20.682;2022-07-03T02:04:32;10.02;;;7.45;;
21761;SDS011;11203;50.870;20.682;2022-07-03T02:09:44;8.00;;;6.88;;
21761;SDS011;11203;50.870;20.682;2022-07-03T02:12:18;11.48;;;8.85;;
21761;SDS011;11203;50.870;20.682;2022-07-03T02:14:48;9.38;;;8.13;;
21761;SDS011;11203;50.870;20.682;2022-07-03T02:17:48;13.00;;;9.05;;
21761;SDS011;11203;50.870;20.682;2022-07-03T02:20:17;10.68;;;8.15;;
21761;SDS011;11203;50.870;20.682;2022-07-03T02:22:47;10.00;;;8.68;;
21761;SDS011;11203;50.870;20.682;2022-07-03T02:25:35;10.95;;;8.60;;
21761;SDS011;11203;50.870;20.682;2022-07-03T02:28:06;10.52;;;9.25;;
21761;SDS011;11203;50.870;20.682;2022-07-03T02:31:04;10.40;;;9.25;;
21761;SDS011;11203;50.870;20.682;2022-07-03T02:33:33;11.90;;;9.05;;
21761;SDS011;11203;50.870;20.682;2022-07-03T02:36:03;10.15;;;9.13;;
21761;SDS011;11203;50.870;20.682;2022-07-03T02:38:36;12.45;;;9.75;;
21761;SDS011;11203;50.870;20.682;2022-07-03T02:41:15;13.93;;;10.13;;
21761;SDS011;11203;50.870;20.682;2022-07-03T02:43:49;11.40;;;10.30;;
21761;SDS011;11203;50.870;20.682;2022-07-03T02:49:16;13.27;;;10.35;;
21761;SDS011;11203;50.870;20.682;2022-07-03T02:52:13;12.57;;;9.63;;
21761;SDS011;11203;50.870;20.682;2022-07-03T02:55:02;12.05;;;10.85;;
21761;SDS011;11203;50.870;20.682;2022-07-03T02:57:43;12.73;;;9.95;;
21761;SDS011;11203;50.870;20.682;2022-07-03T03:00:11;10.85;;;9.75;;
21761;SDS011;11203;50.870;20.682;2022-07-03T03:02:56;12.52;;;10.05;;
21761;SDS011;11203;50.870;20.682;2022-07-03T03:08:16;11.68;;;10.57;;
21761;SDS011;11203;50.870;20.682;2022-07-03T03:10:59;10.60;;;9.60;;
21761;SDS011;11203;50.870;20.682;2022-07-03T03:13:32;13.68;;;10.65;;
21761;SDS011;11203;50.870;20.682;2022-07-03T03:16:06;12.27;;;10.80;;
21761;SDS011;11203;50.870;20.682;2022-07-03T03:18:35;11.00;;;10.00;;
21761;SDS011;11203;50.870;20.682;2022-07-03T03:21:11;14.10;;;11.73;;
21761;SDS011;11203;50.870;20.682;2022-07-03T03:23:43;9.57;;;8.57;;
21761;SDS011;11203;50.870;20.682;2022-07-03T03:26:21;9.40;;;8.55;;
21761;SDS011;11203;50.870;20.682;2022-07-03T03:28:58;9.63;;;8.63;;
21761;SDS011;11203;50.870;20.682;2022-07-03T03:31:25;10.35;;;9.20;;
21761;SDS011;11203;50.870;20.682;2022-07-03T03:33:52;10.65;;;8.82;;
21761;SDS011;11203;50.870;20.682;2022-07-03T03:36:20;10.02;;;9.07;;
21761;SDS011;11203;50.870;20.682;2022-07-03T03:38:47;12.50;;;10.00;;
21761;SDS011;11203;50.870;20.682;2022-07-03T03:41:14;11.38;;;9.93;;
21761;SDS011;11203;50.870;20.682;2022-07-03T03:43:40;12.45;;;8.90;;
21761;SDS011;11203;50.870;20.682;2022-07-03T03:46:06;11.05;;;9.38;;
21761;SDS011;11203;50.870;20.682;2022-07-03T03:48:32;10.63;;;9.73;;
21761;SDS011;11203;50.870;20.682;2022-07-03T03:51:00;10.75;;;9.45;;
21761;SDS011;11203;50.870;20.682;2022-07-03T03:53:28;10.85;;;9.40;;
21761;SDS011;11203;50.870;20.682;2022-07-03T03:58:30;10.70;;;9.05;;
21761;SDS011;11203;50.870;20.682;2022-07-03T04:01:00;10.95;;;9.90;;
21761;SDS011;11203;50.870;20.682;2022-07-03T04:03:29;11.73;;;9.32;;
21761;SDS011;11203;50.870;20.682;2022-07-03T04:05:57;10.02;;;9.05;;
21761;SDS011;11203;50.870;20.682;2022-07-03T04:08:23;9.35;;;8.55;;
21761;SDS011;11203;50.870;20.682;2022-07-03T04:10:50;11.13;;;8.35;;
21761;SDS011;11203;50.870;20.682;2022-07-03T04:13:16;10.18;;;7.80;;
21761;SDS011;11203;50.870;20.682;2022-07-03T04:15:45;9.15;;;7.43;;
21761;SDS011;11203;50.870;20.682;2022-07-03T04:18:12;9.30;;;8.30;;
21761;SDS011;11203;50.870;20.682;2022-07-03T04:20:38;8.13;;;7.28;;
21761;SDS011;11203;50.870;20.682;2022-07-03T04:23:04;10.35;;;7.85;;
21761;SDS011;11203;50.870;20.682;2022-07-03T04:25:30;9.30;;;8.40;;
21761;SDS011;11203;50.870;20.682;2022-07-03T04:27:56;9.55;;;8.65;;
21761;SDS011;11203;50.870;20.682;2022-07-03T04:30:22;12.70;;;9.13;;
21761;SDS011;11203;50.870;20.682;2022-07-03T04:32:49;10.10;;;9.13;;
21761;SDS011;11203;50.870;20.682;2022-07-03T04:35:15;11.20;;;10.10;;
21761;SDS011;11203;50.870;20.682;2022-07-03T04:37:43;10.70;;;9.65;;
21761;SDS011;11203;50.870;20.682;2022-07-03T04:40:10;12.63;;;11.40;;
21761;SDS011;11203;50.870;20.682;2022-07-03T04:42:37;11.63;;;10.35;;
21761;SDS011;11203;50.870;20.682;2022-07-03T04:45:03;12.63;;;10.35;;
21761;SDS011;11203;50.870;20.682;2022-07-03T04:47:30;14.23;;;11.70;;
21761;SDS011;11203;50.870;20.682;2022-07-03T04:49:56;10.68;;;9.57;;
21761;SDS011;11203;50.870;20.682;2022-07-03T04:52:22;11.52;;;9.95;;
21761;SDS011;11203;50.870;20.682;2022-07-03T04:54:49;13.38;;;9.95;;
21761;SDS011;11203;50.870;20.682;2022-07-03T04:57:15;11.50;;;10.35;;
21761;SDS011;11203;50.870;20.682;2022-07-03T04:59:41;13.23;;;10.30;;
21761;SDS011;11203;50.870;20.682;2022-07-03T05:02:07;11.85;;;9.60;;
21761;SDS011;11203;50.870;20.682;2022-07-03T05:04:33;10.32;;;9.43;;
21761;SDS011;11203;50.870;20.682;2022-07-03T05:07:00;12.02;;;8.95;;
21761;SDS011;11203;50.870;20.682;2022-07-03T05:09:26;13.88;;;8.60;;
21761;SDS011;11203;50.870;20.682;2022-07-03T05:11:52;11.10;;;8.15;;
21761;SDS011;11203;50.870;20.682;2022-07-03T05:14:18;8.52;;;7.68;;
21761;SDS011;11203;50.870;20.682;2022-07-03T05:16:44;8.10;;;7.40;;
21761;SDS011;11203;50.870;20.682;2022-07-03T05:19:10;10.13;;;7.30;;
21761;SDS011;11203;50.870;20.682;2022-07-03T05:21:36;9.10;;;7.30;;
21761;SDS011;11203;50.870;20.682;2022-07-03T05:24:02;7.63;;;6.82;;
21761;SDS011;11203;50.870;20.682;2022-07-03T05:26:29;7.65;;;6.85;;
21761;SDS011;11203;50.870;20.682;2022-07-03T05:28:55;7.43;;;5.90;;
21761;SDS011;11203;50.870;20.682;2022-07-03T05:31:21;8.90;;;5.55;;
21761;SDS011;11203;50.870;20.682;2022-07-03T05:33:47;7.20;;;5.75;;
21761;SDS011;11203;50.870;20.682;2022-07-03T05:36:13;7.38;;;4.82;;
21761;SDS011;11203;50.870;20.682;2022-07-03T05:38:39;7.57;;;5.05;;
21761;SDS011;11203;50.870;20.682;2022-07-03T05:41:23;9.15;;;5.00;;
21761;SDS011;11203;50.870;20.682;2022-07-03T05:43:49;8.57;;;5.35;;
21761;SDS011;11203;50.870;20.682;2022-07-03T05:46:15;8.98;;;5.07;;
21761;SDS011;11203;50.870;20.682;2022-07-03T05:48:41;7.80;;;5.40;;
21761;SDS011;11203;50.870;20.682;2022-07-03T05:51:07;5.10;;;4.50;;
21761;SDS011;11203;50.870;20.682;2022-07-03T05:53:33;5.88;;;3.92;;
21761;SDS011;11203;50.870;20.682;2022-07-03T05:55:59;6.45;;;4.63;;
21761;SDS011;11203;50.870;20.682;2022-07-03T05:58:26;4.68;;;4.28;;
21761;SDS011;11203;50.870;20.682;2022-07-03T06:00:52;8.10;;;5.00;;
21761;SDS011;11203;50.870;20.682;2022-07-03T06:03:18;7.30;;;4.75;;
21761;SDS011;11203;50.870;20.682;2022-07-03T06:05:44;6.78;;;4.60;;
21761;SDS011;11203;50.870;20.682;2022-07-03T06:08:10;6.25;;;3.80;;
21761;SDS011;11203;50.870;20.682;2022-07-03T06:10:36;5.20;;;3.70;;
21761;SDS011;11203;50.870;20.682;2022-07-03T06:13:02;6.57;;;3.63;;
21761;SDS011;11203;50.870;20.682;2022-07-03T06:15:28;6.88;;;3.92;;
21761;SDS011;11203;50.870;20.682;2022-07-03T06:17:54;3.67;;;3.22;;
21761;SDS011;11203;50.870;20.682;2022-07-03T06:20:20;6.32;;;3.53;;
21761;SDS011;11203;50.870;20.682;2022-07-03T06:22:46;4.72;;;3.60;;
21761;SDS011;11203;50.870;20.682;2022-07-03T06:25:12;5.97;;;3.35;;
21761;SDS011;11203;50.870;20.682;2022-07-03T06:27:39;5.93;;;3.47;;
21761;SDS011;11203;50.870;20.682;2022-07-03T06:30:05;5.28;;;3.60;;
21761;SDS011;11203;50.870;20.682;2022-07-03T06:32:32;5.15;;;3.45;;
21761;SDS011;11203;50.870;20.682;2022-07-03T06:34:58;6.10;;;3.55;;
21761;SDS011;11203;50.870;20.682;2022-07-03T06:37:24;4.60;;;3.42;;
21761;SDS011;11203;50.870;20.682;2022-07-03T06:39:50;4.68;;;3.15;;
21761;SDS011;11203;50.870;20.682;2022-07-03T06:42:16;5.47;;;3.30;;
21761;SDS011;11203;50.870;20.682;2022-07-03T06:44:42;4.32;;;3.20;;
21761;SDS011;11203;50.870;20.682;2022-07-03T06:47:10;5.68;;;3.38;;
21761;SDS011;11203;50.870;20.682;2022-07-03T06:49:36;5.88;;;3.35;;
21761;SDS011;11203;50.870;20.682;2022-07-03T06:52:02;5.53;;;3.58;;
21761;SDS011;11203;50.870;20.682;2022-07-03T06:54:28;4.63;;;3.38;;
21761;SDS011;11203;50.870;20.682;2022-07-03T06:56:54;4.97;;;3.30;;
21761;SDS011;11203;50.870;20.682;2022-07-03T06:59:20;4.60;;;3.53;;
21761;SDS011;11203;50.870;20.682;2022-07-03T07:01:46;3.92;;;3.33;;
21761;SDS011;11203;50.870;20.682;2022-07-03T07:04:12;4.85;;;3.30;;
21761;SDS011;11203;50.870;20.682;2022-07-03T07:06:38;3.50;;;3.20;;
21761;SDS011;11203;50.870;20.682;2022-07-03T07:09:04;4.50;;;3.28;;
21761;SDS011;11203;50.870;20.682;2022-07-03T07:11:30;3.42;;;3.13;;
21761;SDS011;11203;50.870;20.682;2022-07-03T07:13:56;5.20;;;3.40;;
21761;SDS011;11203;50.870;20.682;2022-07-03T07:16:22;6.78;;;3.50;;
21761;SDS011;11203;50.870;20.682;2022-07-03T07:18:48;3.58;;;3.28;;
21761;SDS011;11203;50.870;20.682;2022-07-03T07:21:14;6.05;;;3.80;;
21761;SDS011;11203;50.870;20.682;2022-07-03T07:23:40;6.30;;;3.80;;
21761;SDS011;11203;50.870;20.682;2022-07-03T07:26:06;4.55;;;3.40;;
21761;SDS011;11203;50.870;20.682;2022-07-03T07:28:33;5.45;;;2.90;;
21761;SDS011;11203;50.870;20.682;2022-07-03T07:31:00;4.55;;;3.50;;
21761;SDS011;11203;50.870;20.682;2022-07-03T07:33:27;6.13;;;3.47;;
21761;SDS011;11203;50.870;20.682;2022-07-03T07:35:53;4.07;;;3.28;;
21761;SDS011;11203;50.870;20.682;2022-07-03T07:38:19;3.67;;;2.95;;
21761;SDS011;11203;50.870;20.682;2022-07-03T07:40:46;3.97;;;2.88;;
21761;SDS011;11203;50.870;20.682;2022-07-03T07:43:12;4.70;;;3.20;;
21761;SDS011;11203;50.870;20.682;2022-07-03T07:45:38;3.20;;;2.90;;
21761;SDS011;11203;50.870;20.682;2022-07-03T07:48:05;3.70;;;2.92;;
21761;SDS011;11203;50.870;20.682;2022-07-03T07:50:31;4.28;;;3.78;;
21761;SDS011;11203;50.870;20.682;2022-07-03T07:52:57;3.47;;;3.15;;
21761;SDS011;11203;50.870;20.682;2022-07-03T07:55:23;6.32;;;3.60;;
21761;SDS011;11203;50.870;20.682;2022-07-03T07:57:50;3.80;;;3.50;;
21761;SDS011;11203;50.870;20.682;2022-07-03T08:00:17;3.95;;;3.65;;
21761;SDS011;11203;50.870;20.682;2022-07-03T08:02:45;5.25;;;4.07;;
21761;SDS011;11203;50.870;20.682;2022-07-03T08:05:30;4.40;;;4.00;;
21761;SDS011;11203;50.870;20.682;2022-07-03T08:08:07;4.72;;;3.45;;
21761;SDS011;11203;50.870;20.682;2022-07-03T08:13:13;4.13;;;3.40;;
21761;SDS011;11203;50.870;20.682;2022-07-03T08:15:43;3.47;;;3.22;;
21761;SDS011;11203;50.870;20.682;2022-07-03T08:18:10;3.28;;;3.08;;
21761;SDS011;11203;50.870;20.682;2022-07-03T08:20:36;5.50;;;3.90;;
21761;SDS011;11203;50.870;20.682;2022-07-03T08:23:03;6.53;;;3.15;;
21761;SDS011;11203;50.870;20.682;2022-07-03T08:25:30;4.13;;;3.80;;
21761;SDS011;11203;50.870;20.682;2022-07-03T08:27:56;3.85;;;3.55;;
21761;SDS011;11203;50.870;20.682;2022-07-03T08:30:24;4.10;;;3.70;;
21761;SDS011;11203;50.870;20.682;2022-07-03T08:32:52;4.30;;;3.97;;
21761;SDS011;11203;50.870;20.682;2022-07-03T08:35:21;4.20;;;3.80;;
21761;SDS011;11203;50.870;20.682;2022-07-03T08:37:47;4.88;;;4.32;;
21761;SDS011;11203;50.870;20.682;2022-07-03T08:40:14;5.07;;;4.50;;
21761;SDS011;11203;50.870;20.682;2022-07-03T08:42:42;5.15;;;4.25;;
21761;SDS011;11203;50.870;20.682;2022-07-03T08:45:15;4.95;;;4.55;;
21761;SDS011;11203;50.870;20.682;2022-07-03T08:47:44;5.25;;;4.55;;
21761;SDS011;11203;50.870;20.682;2022-07-03T08:50:12;4.55;;;4.15;;
21761;SDS011;11203;50.870;20.682;2022-07-03T08:52:41;6.38;;;4.07;;
21761;SDS011;11203;50.870;20.682;2022-07-03T08:55:08;7.45;;;5.60;;
21761;SDS011;11203;50.870;20.682;2022-07-03T08:57:36;5.47;;;4.30;;
21761;SDS011;11203;50.870;20.682;2022-07-03T09:00:07;4.80;;;4.30;;
21761;SDS011;11203;50.870;20.682;2022-07-03T09:02:38;5.55;;;4.32;;
21761;SDS011;11203;50.870;20.682;2022-07-03T09:05:09;8.93;;;4.30;;
21761;SDS011;11203;50.870;20.682;2022-07-03T09:07:40;5.13;;;4.70;;
21761;SDS011;11203;50.870;20.682;2022-07-03T09:10:09;7.03;;;5.45;;
21761;SDS011;11203;50.870;20.682;2022-07-03T09:12:38;7.63;;;4.32;;
21761;SDS011;11203;50.870;20.682;2022-07-03T09:15:05;6.10;;;4.97;;
21761;SDS011;11203;50.870;20.682;2022-07-03T09:17:33;6.72;;;5.15;;
21761;SDS011;11203;50.870;20.682;2022-07-03T09:20:02;6.40;;;4.70;;
21761;SDS011;11203;50.870;20.682;2022-07-03T09:22:36;5.47;;;4.75;;
21761;SDS011;11203;50.870;20.682;2022-07-03T09:27:34;6.70;;;5.30;;
21761;SDS011;11203;50.870;20.682;2022-07-03T09:32:45;7.18;;;6.40;;
21761;SDS011;11203;50.870;20.682;2022-07-03T09:37:58;6.30;;;5.80;;
21761;SDS011;11203;50.870;20.682;2022-07-03T09:45:55;6.65;;;6.15;;
21761;SDS011;11203;50.870;20.682;2022-07-03T09:48:27;6.40;;;5.90;;
21761;SDS011;11203;50.870;20.682;2022-07-03T09:51:37;7.00;;;6.30;;
21761;SDS011;11203;50.870;20.682;2022-07-03T09:56:37;7.00;;;6.38;;
21761;SDS011;11203;50.870;20.682;2022-07-03T09:59:08;7.82;;;6.15;;
21761;SDS011;11203;50.870;20.682;2022-07-03T10:01:42;8.10;;;5.70;;
21761;SDS011;11203;50.870;20.682;2022-07-03T10:04:15;6.10;;;5.50;;
21761;SDS011;11203;50.870;20.682;2022-07-03T10:06:47;5.53;;;5.05;;
21761;SDS011;11203;50.870;20.682;2022-07-03T10:09:18;6.78;;;5.57;;
21761;SDS011;11203;50.870;20.682;2022-07-03T10:11:56;5.90;;;5.40;;
21761;SDS011;11203;50.870;20.682;2022-07-03T10:14:25;8.85;;;5.53;;
21761;SDS011;11203;50.870;20.682;2022-07-03T10:16:56;8.05;;;4.93;;
21761;SDS011;11203;50.870;20.682;2022-07-03T10:19:27;5.53;;;5.07;;
21761;SDS011;11203;50.870;20.682;2022-07-03T10:22:05;6.43;;;5.20;;
21761;SDS011;11203;50.870;20.682;2022-07-03T10:24:36;5.10;;;4.60;;
21761;SDS011;11203;50.870;20.682;2022-07-03T10:27:03;5.35;;;4.57;;
21761;SDS011;11203;50.870;20.682;2022-07-03T10:29:29;5.65;;;4.70;;
21761;SDS011;11203;50.870;20.682;2022-07-03T10:31:56;5.35;;;4.85;;
21761;SDS011;11203;50.870;20.682;2022-07-03T10:34:26;5.43;;;5.00;;
21761;SDS011;11203;50.870;20.682;2022-07-03T10:36:57;5.40;;;4.93;;
21761;SDS011;11203;50.870;20.682;2022-07-03T10:42:44;5.45;;;4.95;;
21761;SDS011;11203;50.870;20.682;2022-07-03T10:45:32;5.72;;;4.97;;
21761;SDS011;11203;50.870;20.682;2022-07-03T10:47:58;5.85;;;4.70;;
21761;SDS011;11203;50.870;20.682;2022-07-03T10:50:24;5.28;;;4.68;;
21761;SDS011;11203;50.870;20.682;2022-07-03T10:52:50;4.72;;;4.32;;
21761;SDS011;11203;50.870;20.682;2022-07-03T10:55:17;5.78;;;4.32;;
21761;SDS011;11203;50.870;20.682;2022-07-03T10:58:28;5.70;;;5.10;;
21761;SDS011;11203;50.870;20.682;2022-07-03T11:00:52;5.65;;;4.68;;
21761;SDS011;11203;50.870;20.682;2022-07-03T11:06:19;5.05;;;4.47;;
21761;SDS011;11203;50.870;20.682;2022-07-03T11:09:00;6.22;;;4.88;;
21761;SDS011;11203;50.870;20.682;2022-07-03T11:14:21;8.68;;;4.97;;
21761;SDS011;11203;50.870;20.682;2022-07-03T11:17:15;5.57;;;4.03;;
21761;SDS011;11203;50.870;20.682;2022-07-03T11:19:46;5.28;;;4.40;;
21761;SDS011;11203;50.870;20.682;2022-07-03T11:25:46;4.78;;;4.38;;
21761;SDS011;11203;50.870;20.682;2022-07-03T11:33:43;4.65;;;4.25;;
21761;SDS011;11203;50.870;20.682;2022-07-03T11:36:31;4.93;;;4.50;;
21761;SDS011;11203;50.870;20.682;2022-07-03T11:41:24;5.03;;;4.00;;
21761;SDS011;11203;50.870;20.682;2022-07-03T11:43:53;3.88;;;3.58;;
21761;SDS011;11203;50.870;20.682;2022-07-03T11:46:25;4.63;;;4.10;;
21761;SDS011;11203;50.870;20.682;2022-07-03T11:49:07;4.55;;;3.63;;
21761;SDS011;11203;50.870;20.682;2022-07-03T11:51:35;4.28;;;3.88;;
21761;SDS011;11203;50.870;20.682;2022-07-03T11:54:03;3.95;;;3.65;;
21761;SDS011;11203;50.870;20.682;2022-07-03T11:56:30;5.97;;;3.53;;
21761;SDS011;11203;50.870;20.682;2022-07-03T11:58:58;8.23;;;4.28;;
21761;SDS011;11203;50.870;20.682;2022-07-03T12:12:02;3.35;;;3.13;;
21761;SDS011;11203;50.870;20.682;2022-07-03T12:17:14;3.83;;;3.50;;
21761;SDS011;11203;50.870;20.682;2022-07-03T12:19:49;3.40;;;3.10;;
21761;SDS011;11203;50.870;20.682;2022-07-03T12:22:25;6.45;;;3.35;;
21761;SDS011;11203;50.870;20.682;2022-07-03T12:25:00;4.30;;;3.45;;
21761;SDS011;11203;50.870;20.682;2022-07-03T12:27:29;3.33;;;3.10;;
21761;SDS011;11203;50.870;20.682;2022-07-03T12:29:57;4.70;;;3.35;;
21761;SDS011;11203;50.870;20.682;2022-07-03T12:32:24;2.90;;;2.70;;
21761;SDS011;11203;50.870;20.682;2022-07-03T12:34:51;6.53;;;4.78;;
21761;SDS011;11203;50.870;20.682;2022-07-03T12:37:17;4.53;;;3.20;;
21761;SDS011;11203;50.870;20.682;2022-07-03T12:40:06;4.20;;;3.50;;
21761;SDS011;11203;50.870;20.682;2022-07-03T12:42:48;4.70;;;3.20;;
21761;SDS011;11203;50.870;20.682;2022-07-03T12:45:25;3.58;;;2.70;;
21761;SDS011;11203;50.870;20.682;2022-07-03T12:47:56;4.30;;;2.60;;
21761;SDS011;11203;50.870;20.682;2022-07-03T12:50:49;2.72;;;2.53;;
21761;SDS011;11203;50.870;20.682;2022-07-03T12:53:26;3.28;;;2.80;;
21761;SDS011;11203;50.870;20.682;2022-07-03T12:56:07;3.50;;;2.67;;
21761;SDS011;11203;50.870;20.682;2022-07-03T12:58:36;4.93;;;2.72;;
21761;SDS011;11203;50.870;20.682;2022-07-03T13:01:31;4.72;;;2.92;;
21761;SDS011;11203;50.870;20.682;2022-07-03T13:03:59;3.88;;;2.83;;
21761;SDS011;11203;50.870;20.682;2022-07-03T13:06:26;5.20;;;4.72;;
21761;SDS011;11203;50.870;20.682;2022-07-03T13:09:03;7.82;;;6.07;;
21761;SDS011;11203;50.870;20.682;2022-07-03T13:11:38;4.53;;;2.72;;
21761;SDS011;11203;50.870;20.682;2022-07-03T13:14:12;3.75;;;3.15;;
21761;SDS011;11203;50.870;20.682;2022-07-03T13:19:10;3.35;;;3.05;;
21761;SDS011;11203;50.870;20.682;2022-07-03T13:21:41;3.67;;;2.90;;
21761;SDS011;11203;50.870;20.682;2022-07-03T13:24:11;2.95;;;2.65;;
21761;SDS011;11203;50.870;20.682;2022-07-03T13:26:40;4.32;;;2.60;;
21761;SDS011;11203;50.870;20.682;2022-07-03T13:29:07;4.43;;;2.70;;
21761;SDS011;11203;50.870;20.682;2022-07-03T13:31:33;3.97;;;3.25;;
21761;SDS011;11203;50.870;20.682;2022-07-03T13:33:59;3.40;;;2.78;;
21761;SDS011;11203;50.870;20.682;2022-07-03T13:36:26;3.88;;;2.75;;
21761;SDS011;11203;50.870;20.682;2022-07-03T13:38:53;6.05;;;2.60;;
21761;SDS011;11203;50.870;20.682;2022-07-03T13:41:19;3.28;;;2.90;;
21761;SDS011;11203;50.870;20.682;2022-07-03T13:43:47;2.83;;;2.63;;
21761;SDS011;11203;50.870;20.682;2022-07-03T13:46:14;3.97;;;2.50;;
21761;SDS011;11203;50.870;20.682;2022-07-03T13:48:41;4.03;;;2.85;;
21761;SDS011;11203;50.870;20.682;2022-07-03T13:51:07;3.05;;;2.85;;
21761;SDS011;11203;50.870;20.682;2022-07-03T13:53:33;4.10;;;2.88;;
21761;SDS011;11203;50.870;20.682;2022-07-03T13:56:00;3.33;;;2.83;;
21761;SDS011;11203;50.870;20.682;2022-07-03T13:58:26;3.00;;;2.80;;
21761;SDS011;11203;50.870;20.682;2022-07-03T14:00:53;2.90;;;2.67;;
21761;SDS011;11203;50.870;20.682;2022-07-03T14:03:19;2.97;;;2.53;;
21761;SDS011;11203;50.870;20.682;2022-07-03T14:05:46;2.53;;;2.33;;
21761;SDS011;11203;50.870;20.682;2022-07-03T14:08:16;2.75;;;2.55;;
21761;SDS011;11203;50.870;20.682;2022-07-03T14:10:43;3.05;;;2.80;;
21761;SDS011;11203;50.870;20.682;2022-07-03T14:13:10;3.95;;;2.78;;
21761;SDS011;11203;50.870;20.682;2022-07-03T14:15:36;2.78;;;2.58;;
21761;SDS011;11203;50.870;20.682;2022-07-03T14:18:02;3.20;;;2.60;;
21761;SDS011;11203;50.870;20.682;2022-07-03T14:20:29;3.25;;;2.53;;
21761;SDS011;11203;50.870;20.682;2022-07-03T14:22:55;3.38;;;2.80;;
21761;SDS011;11203;50.870;20.682;2022-07-03T14:25:21;2.70;;;2.50;;
21761;SDS011;11203;50.870;20.682;2022-07-03T14:27:47;2.80;;;2.35;;
21761;SDS011;11203;50.870;20.682;2022-07-03T14:30:32;3.20;;;3.00;;
21761;SDS011;11203;50.870;20.682;2022-07-03T14:33:17;3.42;;;3.13;;
21761;SDS011;11203;50.870;20.682;2022-07-03T14:35:43;2.55;;;2.35;;
21761;SDS011;11203;50.870;20.682;2022-07-03T14:38:09;5.03;;;2.90;;
21761;SDS011;11203;50.870;20.682;2022-07-03T14:40:35;3.25;;;3.00;;
21761;SDS011;11203;50.870;20.682;2022-07-03T14:43:01;3.35;;;2.60;;
21761;SDS011;11203;50.870;20.682;2022-07-03T14:45:27;2.67;;;2.47;;
21761;SDS011;11203;50.870;20.682;2022-07-03T14:47:53;2.80;;;2.60;;
21761;SDS011;11203;50.870;20.682;2022-07-03T14:50:19;3.15;;;2.60;;
21761;SDS011;11203;50.870;20.682;2022-07-03T14:52:46;3.17;;;2.60;;
21761;SDS011;11203;50.870;20.682;2022-07-03T14:55:28;2.95;;;2.75;;
21761;SDS011;11203;50.870;20.682;2022-07-03T14:58:04;2.70;;;2.50;;
21761;SDS011;11203;50.870;20.682;2022-07-03T15:00:45;3.17;;;2.50;;
21761;SDS011;11203;50.870;20.682;2022-07-03T15:03:18;3.03;;;2.55;;
21761;SDS011;11203;50.870;20.682;2022-07-03T15:05:56;2.90;;;2.70;;
21761;SDS011;11203;50.870;20.682;2022-07-03T15:11:18;2.90;;;2.70;;
21761;SDS011;11203;50.870;20.682;2022-07-03T15:14:07;2.80;;;2.60;;
21761;SDS011;11203;50.870;20.682;2022-07-03T15:16:35;4.18;;;2.65;;
21761;SDS011;11203;50.870;20.682;2022-07-03T15:19:05;4.30;;;2.70;;
21761;SDS011;11203;50.870;20.682;2022-07-03T15:21:34;3.40;;;2.58;;
21761;SDS011;11203;50.870;20.682;2022-07-03T15:24:04;5.50;;;3.00;;
21761;SDS011;11203;50.870;20.682;2022-07-03T15:26:32;3.30;;;2.85;;
21761;SDS011;11203;50.870;20.682;2022-07-03T15:28:59;5.82;;;3.08;;
21761;SDS011;11203;50.870;20.682;2022-07-03T15:31:28;4.65;;;2.63;;
21761;SDS011;11203;50.870;20.682;2022-07-03T15:34:04;3.13;;;2.72;;
21761;SDS011;11203;50.870;20.682;2022-07-03T15:39:52;2.83;;;2.55;;
21761;SDS011;11203;50.870;20.682;2022-07-03T15:51:17;3.58;;;2.83;;
21761;SDS011;11203;50.870;20.682;2022-07-03T15:53:51;5.22;;;3.38;;
21761;SDS011;11203;50.870;20.682;2022-07-03T15:56:29;4.43;;;3.60;;
21761;SDS011;11203;50.870;20.682;2022-07-03T15:59:00;3.28;;;2.85;;
21761;SDS011;11203;50.870;20.682;2022-07-03T16:01:30;3.33;;;3.03;;
21761;SDS011;11203;50.870;20.682;2022-07-03T16:04:27;3.85;;;3.08;;
21761;SDS011;11203;50.870;20.682;2022-07-03T16:07:07;10.98;;;5.75;;
21761;SDS011;11203;50.870;20.682;2022-07-03T16:09:36;3.38;;;3.08;;
21761;SDS011;11203;50.870;20.682;2022-07-03T16:12:02;5.22;;;2.63;;
21761;SDS011;11203;50.870;20.682;2022-07-03T16:14:28;4.45;;;3.33;;
21761;SDS011;11203;50.870;20.682;2022-07-03T16:17:03;5.47;;;3.10;;
21761;SDS011;11203;50.870;20.682;2022-07-03T16:19:30;2.97;;;2.78;;
21761;SDS011;11203;50.870;20.682;2022-07-03T16:21:58;3.25;;;2.70;;
21761;SDS011;11203;50.870;20.682;2022-07-03T16:24:26;4.32;;;2.95;;